createdAt,value
2023-01-17T00:01:49.515Z,98354.22
2023-01-17T00:04:35.905Z,98346.88
2023-01-17T00:07:22.934Z,98345.78
2023-01-17T00:09:53.612Z,98351.50
2023-01-17T00:12:22.134Z,98332.16
2023-01-17T00:14:53.226Z,98347.47
2023-01-17T00:17:20.759Z,98343.06
2023-01-17T00:20:05.923Z,98337.09
2023-01-17T00:22:51.901Z,98337.88
2023-01-17T00:25:39.202Z,98340.63
2023-01-17T00:28:06.317Z,98338.97
2023-01-17T00:30:33.556Z,98333.78
2023-01-17T00:33:02.796Z,98326.09
2023-01-17T00:35:30.876Z,98323.50
2023-01-17T00:38:06.969Z,98328.28
2023-01-17T00:40:34.632Z,98309.50
2023-01-17T00:43:19.954Z,98313.38
2023-01-17T00:46:06.106Z,98304.84
2023-01-17T00:48:51.650Z,98303.66
2023-01-17T00:51:37.470Z,98299.91
2023-01-17T00:54:22.879Z,98293.09
2023-01-17T00:57:12.541Z,98288.09
2023-01-17T00:59:57.984Z,98280.63
2023-01-17T01:02:43.431Z,98280.22
2023-01-17T01:05:29.705Z,98279.69
2023-01-17T01:08:16.029Z,98269.06
2023-01-17T01:11:02.262Z,98264.97
2023-01-17T01:13:48.163Z,98256.00
2023-01-17T01:16:35.023Z,98245.28
2023-01-17T01:19:20.286Z,98232.63
2023-01-17T01:22:06.581Z,98231.88
2023-01-17T01:24:52.023Z,98219.34
2023-01-17T01:27:37.368Z,98214.22
2023-01-17T01:30:25.412Z,98213.69
2023-01-17T01:33:11.872Z,98215.72
2023-01-17T01:35:38.412Z,98209.03
2023-01-17T01:38:04.987Z,98205.25
2023-01-17T01:40:31.575Z,98211.69
2023-01-17T01:43:00.921Z,98208.09
2023-01-17T01:45:29.713Z,98198.81
2023-01-17T01:48:06.942Z,98195.50
2023-01-17T01:50:35.396Z,98179.59
2023-01-17T01:53:03.766Z,98176.09
2023-01-17T01:55:34.528Z,98167.38
2023-01-17T01:58:14.643Z,98157.00
2023-01-17T02:00:42.047Z,98143.59
2023-01-17T02:03:11.941Z,98151.13
2023-01-17T02:05:38.563Z,98135.78
2023-01-17T02:08:08.342Z,98133.13
2023-01-17T02:10:38.216Z,98114.47
2023-01-17T02:13:05.578Z,98110.00
2023-01-17T02:15:44.479Z,98103.06
2023-01-17T02:18:37.040Z,98100.25
2023-01-17T02:21:12.819Z,98098.00
2023-01-17T02:24:08.107Z,98096.63
2023-01-17T02:26:56.195Z,98097.72
2023-01-17T02:29:44.376Z,98081.31
2023-01-17T02:32:15.574Z,98080.50
2023-01-17T02:35:20.974Z,98086.19
2023-01-17T02:38:05.217Z,98081.25
2023-01-17T02:40:42.210Z,98075.25
2023-01-17T02:43:13.404Z,98085.34
2023-01-17T02:45:40.250Z,98081.25
2023-01-17T02:48:11.362Z,98084.53
2023-01-17T02:50:54.439Z,98074.28
2023-01-17T02:53:43.371Z,98070.19
2023-01-17T02:56:34.129Z,98064.75
2023-01-17T02:59:40.464Z,98057.22
2023-01-17T03:02:28.565Z,98049.00
2023-01-17T03:05:02.246Z,98053.78
2023-01-17T03:07:29.436Z,98042.16
2023-01-17T03:10:02.113Z,98043.66
2023-01-17T03:12:33.455Z,98039.97
2023-01-17T03:14:59.968Z,98032.81
2023-01-17T03:17:32.126Z,98022.34
2023-01-17T03:19:58.937Z,98021.66
2023-01-17T03:22:25.466Z,98021.75
2023-01-17T03:24:51.979Z,98026.53
2023-01-17T03:27:18.617Z,98017.66
2023-01-17T03:29:45.176Z,98014.72
2023-01-17T03:32:11.718Z,98004.75
2023-01-17T03:34:38.304Z,97991.44
2023-01-17T03:37:04.811Z,97989.44
2023-01-17T03:39:31.332Z,98000.50
2023-01-17T03:41:57.925Z,97999.06
2023-01-17T03:44:24.424Z,97996.81
2023-01-17T03:46:50.939Z,97984.59
2023-01-17T03:49:18.784Z,97978.38
2023-01-17T03:51:48.490Z,97975.38
2023-01-17T03:54:14.999Z,97976.53
2023-01-17T03:56:41.606Z,97971.25
2023-01-17T03:59:08.137Z,97968.75
2023-01-17T04:01:34.971Z,97966.78
2023-01-17T04:04:04.731Z,97973.19
2023-01-17T04:06:31.272Z,97959.06
2023-01-17T04:08:57.813Z,97961.66
2023-01-17T04:11:24.589Z,97952.38
2023-01-17T04:13:51.096Z,97944.66
2023-01-17T04:16:19.447Z,97939.78
2023-01-17T04:18:46.645Z,97946.34
2023-01-17T04:21:13.155Z,97930.50
2023-01-17T04:23:39.757Z,97929.13
2023-01-17T04:26:06.347Z,97929.00
2023-01-17T04:28:32.887Z,97915.28
2023-01-17T04:31:00.004Z,97914.59
2023-01-17T04:33:26.690Z,97916.50
2023-01-17T04:35:53.955Z,97916.44
2023-01-17T04:38:20.726Z,97922.78
2023-01-17T04:40:47.441Z,97913.84
2023-01-17T04:43:14.142Z,97919.91
2023-01-17T04:45:40.718Z,97910.50
2023-01-17T04:48:07.774Z,97905.22
2023-01-17T04:50:34.350Z,97913.44
2023-01-17T04:53:01.003Z,97903.72
2023-01-17T04:55:27.641Z,97900.47
2023-01-17T04:57:55.695Z,97901.63
2023-01-17T05:00:24.157Z,97902.03
2023-01-17T05:02:52.102Z,97908.38
2023-01-17T05:05:18.665Z,97902.09
2023-01-17T05:07:53.360Z,97909.03
2023-01-17T05:10:19.887Z,97904.88
2023-01-17T05:12:59.295Z,97900.84
2023-01-17T05:15:26.731Z,97901.63
2023-01-17T05:17:53.558Z,97893.13
2023-01-17T05:20:21.467Z,97889.44
2023-01-17T05:23:00.384Z,97884.69
2023-01-17T05:25:31.343Z,97875.47
2023-01-17T05:28:01.608Z,97868.41
2023-01-17T05:30:32.487Z,97871.00
2023-01-17T05:32:59.246Z,97870.66
2023-01-17T05:35:28.502Z,97875.53
2023-01-17T05:37:55.796Z,97876.19
2023-01-17T05:40:26.416Z,97875.84
2023-01-17T05:42:55.128Z,97874.75
2023-01-17T05:45:23.887Z,97874.81
2023-01-17T05:47:51.986Z,97879.94
2023-01-17T05:50:21.491Z,97873.59
2023-01-17T05:52:52.979Z,97883.25
2023-01-17T05:55:22.736Z,97892.88
2023-01-17T05:57:50.255Z,97879.81
2023-01-17T06:00:17.618Z,97887.63
2023-01-17T06:02:45.387Z,97882.09
2023-01-17T06:05:12.012Z,97878.41
2023-01-17T06:07:40.940Z,97878.41
2023-01-17T06:10:07.806Z,97874.31
2023-01-17T06:12:34.333Z,97870.88
2023-01-17T06:15:01.036Z,97878.28
2023-01-17T06:17:30.507Z,97875.94
2023-01-17T06:19:58.155Z,97879.22
2023-01-17T06:22:24.823Z,97886.38
2023-01-17T06:24:51.403Z,97872.81
2023-01-17T06:27:18.134Z,97866.78
2023-01-17T06:29:44.948Z,97862.75
2023-01-17T06:32:13.273Z,97866.78
2023-01-17T06:34:40.399Z,97859.75
2023-01-17T06:37:07.727Z,97861.66
2023-01-17T06:39:34.263Z,97869.38
2023-01-17T06:42:01.152Z,97881.59
2023-01-17T06:44:27.914Z,97879.38
2023-01-17T06:46:54.461Z,97886.00
2023-01-17T06:49:21.112Z,97881.13
2023-01-17T06:51:47.671Z,97874.84
2023-01-17T06:54:14.361Z,97879.44
2023-01-17T06:56:42.938Z,97873.88
2023-01-17T06:59:10.914Z,97870.22
2023-01-17T07:01:37.541Z,97872.88
2023-01-17T07:04:04.548Z,97867.19
2023-01-17T07:06:31.132Z,97872.03
2023-01-17T07:08:58.984Z,97871.00
2023-01-17T07:11:27.315Z,97879.56
2023-01-17T07:13:54.189Z,97884.41
2023-01-17T07:16:21.059Z,97890.00
2023-01-17T07:18:47.709Z,97868.13
2023-01-17T07:21:16.253Z,97883.03
2023-01-17T07:23:44.891Z,97872.28
2023-01-17T07:26:11.504Z,97864.88
2023-01-17T07:28:38.024Z,97867.91
2023-01-17T07:31:07.115Z,97872.34
2023-01-17T07:33:34.395Z,97876.47
2023-01-17T07:36:09.471Z,97867.22
2023-01-17T07:38:36.317Z,97870.97
2023-01-17T07:41:02.910Z,97874.72
2023-01-17T07:43:29.505Z,97862.09
2023-01-17T07:45:56.175Z,97862.91
2023-01-17T07:48:24.223Z,97846.97
2023-01-17T07:50:55.312Z,97852.94
2023-01-17T07:53:30.232Z,97852.22
2023-01-17T07:56:05.768Z,97836.66
2023-01-17T07:58:32.762Z,97829.63
2023-01-17T08:01:09.336Z,97840.75
2023-01-17T08:03:39.914Z,97839.63
2023-01-17T08:06:19.187Z,97833.34
2023-01-17T08:08:46.464Z,97840.84
2023-01-17T08:11:13.528Z,97852.81
2023-01-17T08:13:41.880Z,97841.66
2023-01-17T08:16:13.289Z,97847.69
2023-01-17T08:18:40.462Z,97836.19
2023-01-17T08:21:17.627Z,97838.78
2023-01-17T08:23:48.696Z,97837.69
2023-01-17T08:26:21.389Z,97852.50
2023-01-17T08:28:56.599Z,97857.69
2023-01-17T08:31:24.075Z,97860.34
2023-01-17T08:33:50.731Z,97865.53
2023-01-17T08:36:17.529Z,97860.00
2023-01-17T08:38:44.240Z,97853.38
2023-01-17T08:41:10.796Z,97851.53
2023-01-17T08:43:37.426Z,97850.09
2023-01-17T08:46:06.279Z,97858.28
2023-01-17T08:48:32.936Z,97855.72
2023-01-17T08:51:02.726Z,97845.28
2023-01-17T08:53:29.428Z,97850.88
2023-01-17T08:56:00.415Z,97856.44
2023-01-17T08:58:30.455Z,97862.38
2023-01-17T09:01:02.692Z,97852.38
2023-01-17T09:03:30.498Z,97857.28
2023-01-17T09:06:03.649Z,97860.69
2023-01-17T09:08:30.746Z,97860.41
2023-01-17T09:10:57.311Z,97857.38
2023-01-17T09:13:24.279Z,97860.09
2023-01-17T09:15:50.918Z,97862.72
2023-01-17T09:18:17.488Z,97862.72
2023-01-17T09:20:44.050Z,97868.28
2023-01-17T09:23:10.592Z,97864.25
2023-01-17T09:25:37.288Z,97877.63
2023-01-17T09:28:03.869Z,97878.09
2023-01-17T09:30:30.406Z,97865.84
2023-01-17T09:32:56.961Z,97859.19
2023-01-17T09:35:23.643Z,97854.75
2023-01-17T09:37:51.517Z,97863.72
2023-01-17T09:40:20.623Z,97853.69
2023-01-17T09:42:51.043Z,97860.06
2023-01-17T09:45:19.355Z,97871.13
2023-01-17T09:47:48.562Z,97864.84
2023-01-17T09:50:31.721Z,97860.44
2023-01-17T09:53:04.572Z,97854.13
2023-01-17T09:55:59.419Z,97876.09
2023-01-17T09:58:53.144Z,97870.19
2023-01-17T10:01:57.837Z,97869.09
2023-01-17T10:04:33.901Z,97874.28
2023-01-17T10:07:21.768Z,97867.25
2023-01-17T10:10:17.124Z,97867.25
2023-01-17T10:13:21.491Z,97866.88
2023-01-17T10:16:21.882Z,97865.78
2023-01-17T10:19:10.185Z,97867.66
2023-01-17T10:21:59.136Z,97869.91
2023-01-17T10:24:34.556Z,97870.97
2023-01-17T10:27:02.315Z,97872.88
2023-01-17T10:29:33.309Z,97870.63
2023-01-17T10:32:01.007Z,97876.59
2023-01-17T10:34:30.549Z,97865.47
2023-01-17T10:37:24.108Z,97872.94
2023-01-17T10:39:52.520Z,97879.28
2023-01-17T10:42:26.963Z,97876.28
2023-01-17T10:45:03.804Z,97880.09
2023-01-17T10:47:34.535Z,97881.13
2023-01-17T10:50:05.047Z,97881.94
2023-01-17T10:52:37.533Z,97884.56
2023-01-17T10:55:11.754Z,97880.09
2023-01-17T10:57:43.700Z,97881.59
2023-01-17T11:00:25.604Z,97892.34
2023-01-17T11:02:52.636Z,97881.16
2023-01-17T11:05:30.588Z,97870.47
2023-01-17T11:08:04.846Z,97873.16
2023-01-17T11:10:54.012Z,97872.75
2023-01-17T11:13:29.967Z,97876.84
2023-01-17T11:16:06.193Z,97872.81
2023-01-17T11:18:35.861Z,97863.50
2023-01-17T11:21:25.668Z,97864.31
2023-01-17T11:23:56.760Z,97866.16
2023-01-17T11:26:28.925Z,97851.34
2023-01-17T11:29:35.835Z,97847.72
2023-01-17T11:32:21.298Z,97836.16
2023-01-17T11:35:19.060Z,97842.13
2023-01-17T11:38:06.704Z,97851.34
2023-01-17T11:40:38.955Z,97853.25
2023-01-17T11:43:11.806Z,97863.41
2023-01-17T11:45:39.454Z,97849.25
2023-01-17T11:48:09.090Z,97851.09
2023-01-17T11:51:04.463Z,97848.91
2023-01-17T11:53:38.846Z,97840.63
2023-01-17T11:56:06.944Z,97845.91
2023-01-17T11:58:35.925Z,97843.66
2023-01-17T12:01:23.948Z,97836.56
2023-01-17T12:03:53.421Z,97849.16
2023-01-17T12:06:51.488Z,97842.84
2023-01-17T12:09:22.974Z,97833.63
2023-01-17T12:12:29.704Z,97848.50
2023-01-17T12:15:30.134Z,97843.66
2023-01-17T12:18:38.388Z,97855.13
2023-01-17T12:21:18.322Z,97850.34
2023-01-17T12:24:05.500Z,97845.91
2023-01-17T12:26:38.096Z,97846.25
2023-01-17T12:29:14.148Z,97860.06
2023-01-17T12:32:01.147Z,97857.44
2023-01-17T12:34:36.098Z,97849.28
2023-01-17T12:37:07.164Z,97860.78
2023-01-17T12:39:39.084Z,97851.53
2023-01-17T12:42:09.275Z,97864.63
2023-01-17T12:45:07.030Z,97867.88
2023-01-17T12:47:39.742Z,97881.63
2023-01-17T12:50:40.388Z,97874.16
2023-01-17T12:53:16.180Z,97873.84
2023-01-17T12:56:24.493Z,97876.13
2023-01-17T12:59:13.163Z,97891.75
2023-01-17T13:01:40.153Z,97889.53
2023-01-17T13:08:32.790Z,97888.09
2023-01-17T13:11:43.864Z,97886.56
2023-01-17T13:14:10.811Z,97894.44
2023-01-17T13:16:44.534Z,97904.47
2023-01-17T13:19:50.313Z,97910.47
2023-01-17T13:22:21.865Z,97912.31
2023-01-17T13:25:04.327Z,97918.63
2023-01-17T13:27:59.797Z,97929.38
2023-01-17T13:30:44.576Z,97942.53
2023-01-17T13:33:49.357Z,97936.94
2023-01-17T13:36:40.711Z,97947.31
2023-01-17T13:39:29.603Z,97954.34
2023-01-17T13:42:09.922Z,97964.75
2023-01-17T13:44:50.572Z,97964.06
2023-01-17T13:47:17.725Z,97959.22
2023-01-17T13:49:49.291Z,97964.03
2023-01-17T13:52:29.306Z,97962.19
2023-01-17T13:55:05.508Z,97967.09
2023-01-17T13:57:43.083Z,97970.50
2023-01-17T14:00:18.302Z,97963.38
2023-01-17T14:02:46.581Z,97967.81
2023-01-17T14:05:20.385Z,97975.69
2023-01-17T14:07:49.674Z,97979.00
2023-01-17T14:11:00.379Z,97973.06
2023-01-17T14:13:42.518Z,97976.03
2023-01-17T14:16:25.462Z,97985.28
2023-01-17T14:18:53.064Z,97995.31
2023-01-17T14:22:03.267Z,98000.53
2023-01-17T14:24:30.532Z,97984.41
2023-01-17T14:26:59.412Z,97991.47
2023-01-17T14:29:49.277Z,97995.53
2023-01-17T14:32:42.177Z,97998.13
2023-01-17T14:35:22.805Z,98004.78
2023-01-17T14:38:01.650Z,98008.19
2023-01-17T14:40:31.290Z,98015.28
2023-01-17T14:43:19.534Z,98031.66
2023-01-17T14:45:48.319Z,98022.69
2023-01-17T14:48:16.830Z,98016.34
2023-01-17T14:50:44.892Z,98030.06
2023-01-17T14:53:12.138Z,98023.00
2023-01-17T14:55:49.104Z,98022.25
2023-01-17T14:58:28.154Z,98025.16
2023-01-17T15:01:07.323Z,98023.59
2023-01-17T15:03:51.086Z,98032.84
2023-01-17T15:06:20.243Z,98042.88
2023-01-17T15:08:47.796Z,98045.81
2023-01-17T15:11:22.361Z,98059.53
2023-01-17T15:13:50.099Z,98058.00
2023-01-17T15:16:36.406Z,98055.38
2023-01-17T15:19:13.003Z,98063.00
2023-01-17T15:21:43.011Z,98063.75
2023-01-17T15:24:17.308Z,98066.31
2023-01-17T15:26:44.149Z,98084.03
2023-01-17T15:29:32.194Z,98092.22
2023-01-17T15:32:00.552Z,98087.00
2023-01-17T15:34:33.019Z,98087.69
2023-01-17T15:37:02.767Z,98092.16
2023-01-17T15:39:39.060Z,98093.53
2023-01-17T15:42:27.682Z,98097.97
2023-01-17T15:45:03.077Z,98105.44
2023-01-17T15:47:32.620Z,98109.88
2023-01-17T15:52:49.296Z,98108.38
2023-01-17T15:55:22.635Z,98112.09
2023-01-17T15:57:49.510Z,98130.28
2023-01-17T16:00:47.829Z,98115.78
2023-01-17T16:03:21.095Z,98113.59
2023-01-17T16:05:48.278Z,98125.75
2023-01-17T16:08:30.955Z,98111.97
2023-01-17T16:11:02.176Z,98121.25
2023-01-17T16:13:30.708Z,98126.41
2023-01-17T16:16:18.238Z,98133.16
2023-01-17T16:18:46.530Z,98118.72
2023-01-17T16:21:23.532Z,98127.56
2023-01-17T16:23:50.422Z,98128.19
2023-01-17T16:26:17.231Z,98121.88
2023-01-17T16:28:43.869Z,98130.03
2023-01-17T16:31:10.560Z,98138.97
2023-01-17T16:33:37.675Z,98145.66
2023-01-17T16:36:04.596Z,98141.81
2023-01-17T16:38:32.199Z,98143.31
2023-01-17T16:40:58.798Z,98144.00
2023-01-17T16:43:25.387Z,98150.22
2023-01-17T16:45:53.933Z,98155.34
2023-01-17T16:48:21.000Z,98160.88
2023-01-17T16:50:50.747Z,98163.50
2023-01-17T16:53:24.300Z,98168.03
2023-01-17T16:55:54.266Z,98170.69
2023-01-17T16:58:20.807Z,98170.41
2023-01-17T17:00:48.834Z,98178.63
2023-01-17T17:03:20.487Z,98177.91
2023-01-17T17:05:57.903Z,98182.38
2023-01-17T17:08:26.137Z,98182.44
2023-01-17T17:10:52.812Z,98178.75
2023-01-17T17:13:20.899Z,98188.47
2023-01-17T17:15:47.683Z,98181.75
2023-01-17T17:18:15.726Z,98188.47
2023-01-17T17:20:42.876Z,98196.63
2023-01-17T17:23:13.988Z,98198.50
2023-01-17T17:25:40.498Z,98214.13
2023-01-17T17:28:07.072Z,98218.31
2023-01-17T17:30:34.566Z,98225.06
2023-01-17T17:33:04.701Z,98218.44
2023-01-17T17:35:34.710Z,98237.19
2023-01-17T17:38:01.330Z,98240.59
2023-01-17T17:40:27.988Z,98250.59
2023-01-17T17:42:56.698Z,98244.63
2023-01-17T17:45:23.807Z,98247.91
2023-01-17T17:47:53.079Z,98259.09
2023-01-17T17:50:19.894Z,98262.44
2023-01-17T17:52:48.205Z,98259.16
2023-01-17T17:55:19.040Z,98267.16
2023-01-17T17:57:46.102Z,98261.94
2023-01-17T18:00:13.011Z,98265.31
2023-01-17T18:02:39.748Z,98273.47
2023-01-17T18:05:06.892Z,98270.38
2023-01-17T18:07:34.262Z,98278.03
2023-01-17T18:10:00.784Z,98281.59
2023-01-17T18:12:27.425Z,98278.78
2023-01-17T18:14:55.201Z,98283.47
2023-01-17T18:17:21.882Z,98275.53
2023-01-17T18:19:48.667Z,98272.28
2023-01-17T18:22:15.255Z,98277.50
2023-01-17T18:24:41.913Z,98268.84
2023-01-17T18:27:10.407Z,98269.53
2023-01-17T18:29:37.637Z,98268.97
2023-01-17T18:32:04.415Z,98275.19
2023-01-17T18:34:31.103Z,98278.28
2023-01-17T18:36:58.183Z,98282.03
2023-01-17T18:39:29.387Z,98285.41
2023-01-17T18:41:56.064Z,98293.00
2023-01-17T18:44:23.134Z,98292.69
2023-01-17T18:46:50.732Z,98296.13
2023-01-17T18:49:19.221Z,98295.88
2023-01-17T18:51:50.220Z,98303.31
2023-01-17T18:54:17.738Z,98295.53
2023-01-17T18:56:44.301Z,98308.94
2023-01-17T18:59:14.260Z,98297.28
2023-01-17T19:01:45.922Z,98310.59
2023-01-17T19:04:17.385Z,98309.09
2023-01-17T19:06:46.584Z,98317.22
2023-01-17T19:09:15.831Z,98314.28
2023-01-17T19:11:44.491Z,98333.97
2023-01-17T19:14:14.493Z,98341.34
2023-01-17T19:16:41.930Z,98343.94
2023-01-17T19:19:11.379Z,98347.66
2023-01-17T19:21:38.274Z,98351.03
2023-01-17T19:24:05.167Z,98347.13
2023-01-17T19:26:31.720Z,98366.47
2023-01-17T19:29:05.697Z,98369.75
2023-01-17T19:31:35.780Z,98374.13
2023-01-17T19:34:02.421Z,98383.16
2023-01-17T19:36:34.395Z,98382.75
2023-01-17T19:39:06.162Z,98385.00
2023-01-17T19:41:41.038Z,98391.03
2023-01-17T19:44:09.005Z,98397.91
2023-01-17T19:46:35.980Z,98398.75
2023-01-17T19:49:04.033Z,98401.34
2023-01-17T19:51:30.579Z,98404.69
2023-01-17T19:54:01.835Z,98398.50
2023-01-17T19:56:29.229Z,98409.53
2023-01-17T19:59:01.769Z,98407.72
2023-01-17T20:01:32.255Z,98415.19
2023-01-17T20:04:00.371Z,98424.78
2023-01-17T20:06:30.949Z,98426.88
2023-01-17T20:09:00.869Z,98427.25
2023-01-17T20:11:28.916Z,98435.50
2023-01-17T20:13:57.356Z,98432.06
2023-01-17T20:16:25.614Z,98439.03
2023-01-17T20:18:53.659Z,98442.81
2023-01-17T20:21:27.716Z,98441.59
2023-01-17T20:23:55.014Z,98448.16
2023-01-17T20:26:31.275Z,98453.16
2023-01-17T20:29:01.289Z,98457.59
2023-01-17T20:31:28.740Z,98459.75
2023-01-17T20:33:56.259Z,98467.66
2023-01-17T20:36:24.901Z,98468.78
2023-01-17T20:38:51.595Z,98458.31
2023-01-17T20:41:19.105Z,98462.75
2023-01-17T20:43:47.683Z,98472.16
2023-01-17T20:46:15.383Z,98478.66
2023-01-17T20:48:45.640Z,98485.50
2023-01-17T20:51:12.858Z,98495.34
2023-01-17T20:53:42.594Z,98505.94
2023-01-17T20:56:11.764Z,98511.00
2023-01-17T20:58:38.826Z,98517.72
2023-01-17T21:01:06.348Z,98516.53
2023-01-17T21:03:35.034Z,98522.16
2023-01-17T21:06:03.643Z,98530.81
2023-01-17T21:08:33.583Z,98531.03
2023-01-17T21:11:00.618Z,98523.97
2023-01-17T21:13:28.711Z,98527.97
2023-01-17T21:15:55.414Z,98533.28
2023-01-17T21:18:23.889Z,98524.31
2023-01-17T21:20:50.837Z,98531.88
2023-01-17T21:23:17.983Z,98527.66
2023-01-17T21:25:55.750Z,98541.72
2023-01-17T21:28:25.253Z,98544.09
2023-01-17T21:30:52.644Z,98531.25
2023-01-17T21:33:20.862Z,98545.72
2023-01-17T21:35:47.394Z,98538.25
2023-01-17T21:38:15.626Z,98541.41
2023-01-17T21:40:45.796Z,98539.75
2023-01-17T21:43:12.960Z,98531.97
2023-01-17T21:45:40.776Z,98540.94
2023-01-17T21:48:12.175Z,98544.41
2023-01-17T21:50:39.016Z,98540.22
2023-01-17T21:53:05.556Z,98536.22
2023-01-17T21:55:50.439Z,98540.75
2023-01-17T21:58:36.492Z,98547.78
2023-01-17T22:01:21.611Z,98547.44
2023-01-17T22:03:56.308Z,98546.38
2023-01-17T22:06:25.547Z,98558.47
2023-01-17T22:08:52.168Z,98559.78
2023-01-17T22:11:21.554Z,98556.75
2023-01-17T22:13:49.139Z,98554.59
2023-01-17T22:16:21.344Z,98558.44
2023-01-17T22:18:50.023Z,98550.56
2023-01-17T22:21:20.808Z,98546.69
2023-01-17T22:23:52.046Z,98544.84
2023-01-17T22:26:20.628Z,98549.72
2023-01-17T22:28:47.363Z,98552.63
2023-01-17T22:31:20.768Z,98543.13
2023-01-17T22:33:51.671Z,98560.06
2023-01-17T22:36:18.244Z,98558.13
2023-01-17T22:38:44.859Z,98557.16
2023-01-17T22:41:16.537Z,98566.13
2023-01-17T22:43:44.721Z,98565.25
2023-01-17T22:46:15.592Z,98569.13
2023-01-17T22:48:42.651Z,98571.41
2023-01-17T22:51:11.710Z,98583.28
2023-01-17T22:53:42.755Z,98583.28
2023-01-17T22:56:13.079Z,98587.47
2023-01-17T22:58:45.119Z,98585.69
2023-01-17T23:01:19.807Z,98589.13
2023-01-17T23:03:55.221Z,98591.06
2023-01-17T23:06:30.441Z,98593.31
2023-01-17T23:08:59.379Z,98599.44
2023-01-17T23:11:42.436Z,98607.63
2023-01-17T23:14:29.144Z,98614.28
2023-01-17T23:17:17.867Z,98625.50
2023-01-17T23:19:49.499Z,98624.28
2023-01-17T23:22:23.232Z,98625.75
2023-01-17T23:25:09.533Z,98630.59
2023-01-17T23:28:00.249Z,98624.88
2023-01-17T23:30:43.031Z,98627.34
2023-01-17T23:33:11.878Z,98633.69
2023-01-17T23:35:42.150Z,98641.31
2023-01-17T23:38:37.663Z,98645.13
2023-01-17T23:41:25.271Z,98662.88
2023-01-17T23:43:53.549Z,98669.19
2023-01-17T23:46:20.731Z,98672.81
2023-01-17T23:48:47.977Z,98681.94
2023-01-17T23:51:14.645Z,98683.38
2023-01-17T23:53:41.458Z,98681.94
2023-01-17T23:56:19.649Z,98677.63
2023-01-17T23:58:46.847Z,98673.78
